createdAt,value
2018-09-08T00:00:21.930Z,14.36
2018-09-08T00:01:21.929Z,14.28
2018-09-08T00:02:21.926Z,14.29
2018-09-08T00:03:21.922Z,14.26
2018-09-08T00:04:21.925Z,14.20
2018-09-08T00:05:21.923Z,14.22
2018-09-08T00:06:21.967Z,14.26
2018-09-08T00:07:21.919Z,14.25
2018-09-08T00:08:21.919Z,14.25
2018-09-08T00:09:21.916Z,14.23
2018-09-08T00:10:21.914Z,14.20
2018-09-08T00:11:21.916Z,14.05
2018-09-08T00:12:21.915Z,14.07
2018-09-08T00:13:21.915Z,14.03
2018-09-08T00:14:21.911Z,14.04
2018-09-08T00:15:21.910Z,14.05
2018-09-08T00:16:21.908Z,13.93
2018-09-08T00:17:21.905Z,13.99
2018-09-08T00:18:21.903Z,13.99
2018-09-08T00:19:21.902Z,13.95
2018-09-08T00:20:21.902Z,13.89
2018-09-08T00:21:21.902Z,13.83
2018-09-08T00:22:21.901Z,13.83
2018-09-08T00:23:21.899Z,13.87
2018-09-08T00:24:21.895Z,13.85
2018-09-08T00:25:21.894Z,13.85
2018-09-08T00:26:21.893Z,13.87
2018-09-08T00:27:21.888Z,13.79
2018-09-08T00:28:21.888Z,13.85
2018-09-08T00:29:21.887Z,13.85
2018-09-08T00:30:21.882Z,13.92
2018-09-08T00:31:21.884Z,13.96
2018-09-08T00:32:21.883Z,14.05
2018-09-08T00:33:21.881Z,14.10
2018-09-08T00:34:21.880Z,14.17
2018-09-08T00:35:21.878Z,14.15
2018-09-08T00:36:21.874Z,14.14
2018-09-08T00:37:21.875Z,14.07
2018-09-08T00:38:21.905Z,14.00
2018-09-08T00:39:21.869Z,14.00
2018-09-08T00:40:21.868Z,13.99
2018-09-08T00:41:21.868Z,13.86
2018-09-08T00:42:21.868Z,13.90
2018-09-08T00:43:21.868Z,13.78
2018-09-08T00:44:21.862Z,13.78
2018-09-08T00:45:21.862Z,13.83
2018-09-08T00:46:21.860Z,13.70
2018-09-08T00:47:21.859Z,13.72
2018-09-08T00:48:21.854Z,13.85
2018-09-08T00:49:21.854Z,13.70
2018-09-08T00:50:21.850Z,13.68
2018-09-08T00:51:21.851Z,13.74
2018-09-08T00:52:21.846Z,13.74
2018-09-08T00:53:21.845Z,13.71
2018-09-08T00:54:21.841Z,13.68
2018-09-08T00:55:21.844Z,13.68
2018-09-08T00:56:21.839Z,13.67
2018-09-08T00:57:21.839Z,13.68
2018-09-08T00:58:21.836Z,13.63
2018-09-08T00:59:21.835Z,13.60
2018-09-08T01:00:21.836Z,13.52
2018-09-08T01:01:21.830Z,13.57
2018-09-08T01:02:21.834Z,13.56
2018-09-08T01:03:21.826Z,13.49
2018-09-08T01:04:21.832Z,13.44
2018-09-08T01:05:21.832Z,13.52
2018-09-08T01:06:21.823Z,13.46
2018-09-08T01:07:21.817Z,13.42
2018-09-08T01:08:21.817Z,13.38
2018-09-08T01:09:21.816Z,13.38
2018-09-08T01:10:21.813Z,13.30
2018-09-08T01:11:21.811Z,13.28
2018-09-08T01:12:21.811Z,13.18
2018-09-08T01:13:21.807Z,13.35
2018-09-08T01:14:21.804Z,13.23
2018-09-08T01:15:21.803Z,13.25
2018-09-08T01:16:22.606Z,13.25
2018-09-08T01:17:21.800Z,13.28
2018-09-08T01:18:21.796Z,13.20
2018-09-08T01:19:21.796Z,13.28
2018-09-08T01:20:21.796Z,13.23
2018-09-08T01:21:21.793Z,13.23
2018-09-08T01:22:21.791Z,13.27
2018-09-08T01:23:21.788Z,13.23
2018-09-08T01:24:21.788Z,13.27
2018-09-08T01:25:21.787Z,13.23
2018-09-08T01:26:21.781Z,13.27
2018-09-08T01:27:21.777Z,13.23
2018-09-08T01:28:21.779Z,13.25
2018-09-08T01:29:21.776Z,13.20
2018-09-08T01:30:21.777Z,13.22
2018-09-08T01:31:21.773Z,13.20
2018-09-08T01:32:21.769Z,13.33
2018-09-08T01:33:21.769Z,13.27
2018-09-08T01:34:21.764Z,13.31
2018-09-08T01:35:21.762Z,13.37
2018-09-08T01:36:21.760Z,13.37
2018-09-08T01:37:21.760Z,13.35
2018-09-08T01:38:21.757Z,13.30
2018-09-08T01:39:21.754Z,13.46
2018-09-08T01:40:21.753Z,13.46
2018-09-08T01:41:21.750Z,13.42
2018-09-08T01:42:21.750Z,13.59
2018-09-08T01:43:21.747Z,13.54
2018-09-08T01:44:21.746Z,13.65
2018-09-08T01:45:21.747Z,13.67
2018-09-08T01:46:21.741Z,13.68
2018-09-08T01:47:21.740Z,13.60
2018-09-08T01:48:21.739Z,13.67
2018-09-08T01:49:21.738Z,13.68
2018-09-08T01:50:21.736Z,13.68
2018-09-08T01:51:21.731Z,13.67
2018-09-08T01:52:21.732Z,13.81
2018-09-08T01:53:21.729Z,13.85
2018-09-08T01:54:21.728Z,13.79
2018-09-08T01:55:21.725Z,13.77
2018-09-08T01:56:21.724Z,13.90
2018-09-08T01:57:21.723Z,13.86
2018-09-08T01:58:21.720Z,13.93
2018-09-08T01:59:21.715Z,13.89
2018-09-08T02:00:21.716Z,13.99
2018-09-08T02:01:21.716Z,13.95
2018-09-08T02:02:21.727Z,14.03
2018-09-08T02:03:21.709Z,13.93
2018-09-08T02:04:21.713Z,13.96
2018-09-08T02:05:21.708Z,14.05
2018-09-08T02:06:21.706Z,13.97
2018-09-08T02:07:21.707Z,13.97
2018-09-08T02:08:21.704Z,13.95
2018-09-08T02:09:21.702Z,13.86
2018-09-08T02:10:21.699Z,13.85
2018-09-08T02:11:21.697Z,13.83
2018-09-08T02:12:21.698Z,13.77
2018-09-08T02:13:21.693Z,13.74
2018-09-08T02:14:21.692Z,13.71
2018-09-08T02:15:21.687Z,13.68
2018-09-08T02:16:21.686Z,13.62
2018-09-08T02:17:21.692Z,13.57
2018-09-08T02:18:21.692Z,13.53
2018-09-08T02:19:21.681Z,13.54
2018-09-08T02:20:21.678Z,13.56
2018-09-08T02:21:21.678Z,13.52
2018-09-08T02:22:21.680Z,13.50
2018-09-08T02:23:21.674Z,13.54
2018-09-08T02:24:21.671Z,13.46
2018-09-08T02:25:21.733Z,13.41
2018-09-08T02:26:21.677Z,13.31
2018-09-08T02:27:21.667Z,13.33
2018-09-08T02:28:21.667Z,13.38
2018-09-08T02:29:21.663Z,13.35
2018-09-08T02:30:21.660Z,13.42
2018-09-08T02:31:21.662Z,13.35
2018-09-08T02:32:21.659Z,13.38
2018-09-08T02:33:21.657Z,13.31
2018-09-08T02:34:21.655Z,13.31
2018-09-08T02:35:21.651Z,13.28
2018-09-08T02:36:21.648Z,13.35
2018-09-08T02:37:21.644Z,13.23
2018-09-08T02:38:21.649Z,13.19
2018-09-08T02:39:21.644Z,13.20
2018-09-08T02:40:21.643Z,13.25
2018-09-08T02:41:21.640Z,13.27
2018-09-08T02:42:21.637Z,13.25
2018-09-08T02:43:21.633Z,13.09
2018-09-08T02:44:21.633Z,13.19
2018-09-08T02:45:21.630Z,13.13
2018-09-08T02:46:21.628Z,13.16
2018-09-08T02:47:21.626Z,13.04
2018-09-08T02:48:21.627Z,13.09
2018-09-08T02:49:21.621Z,13.09
2018-09-08T02:50:21.620Z,13.12
2018-09-08T02:51:21.618Z,13.13
2018-09-08T02:52:22.132Z,12.94
2018-09-08T02:53:21.623Z,12.94
2018-09-08T02:54:21.613Z,12.97
2018-09-08T02:55:21.611Z,13.01
2018-09-08T02:56:21.607Z,12.97
2018-09-08T02:57:21.608Z,12.97
2018-09-08T02:58:21.604Z,12.91
2018-09-08T02:59:21.602Z,12.98
2018-09-08T03:00:21.601Z,12.90
2018-09-08T03:01:21.597Z,12.90
2018-09-08T03:02:21.598Z,12.87
2018-09-08T03:03:21.590Z,12.83
2018-09-08T03:04:21.589Z,12.76
2018-09-08T03:05:21.592Z,12.78
2018-09-08T03:06:22.134Z,12.76
2018-09-08T03:07:21.582Z,12.72
2018-09-08T03:08:21.584Z,12.64
2018-09-08T03:09:21.579Z,12.64
2018-09-08T03:10:21.576Z,12.65
2018-09-08T03:11:21.575Z,12.67
2018-09-08T03:12:21.575Z,12.68
2018-09-08T03:13:21.565Z,12.65
2018-09-08T03:14:21.567Z,12.60
2018-09-08T03:15:21.564Z,12.62
2018-09-08T03:16:21.561Z,12.62
2018-09-08T03:17:21.561Z,12.64
2018-09-08T03:18:21.556Z,12.68
2018-09-08T03:19:21.553Z,12.64
2018-09-08T03:20:21.551Z,12.68
2018-09-08T03:21:21.548Z,12.65
2018-09-08T03:22:21.549Z,12.64
2018-09-08T03:23:21.546Z,12.70
2018-09-08T03:24:21.540Z,12.64
2018-09-08T03:25:21.537Z,12.62
2018-09-08T03:26:21.539Z,12.64
2018-09-08T03:27:21.532Z,12.68
2018-09-08T03:28:21.531Z,12.68
2018-09-08T03:29:21.529Z,12.62
2018-09-08T03:30:21.527Z,12.65
2018-09-08T03:31:21.524Z,12.65
2018-09-08T03:32:21.520Z,12.62
2018-09-08T03:33:21.521Z,12.64
2018-09-08T03:34:21.515Z,12.55
2018-09-08T03:35:21.515Z,12.60
2018-09-08T03:36:21.511Z,12.55
2018-09-08T03:37:21.509Z,12.42
2018-09-08T03:38:21.505Z,12.36
2018-09-08T03:39:22.146Z,12.40
2018-09-08T03:40:21.500Z,12.36
2018-09-08T03:41:21.498Z,12.37
2018-09-08T03:42:21.505Z,12.40
2018-09-08T03:43:21.491Z,12.42
2018-09-08T03:44:21.489Z,12.47
2018-09-08T03:45:21.487Z,12.40
2018-09-08T03:46:21.485Z,12.35
2018-09-08T03:47:21.485Z,12.43
2018-09-08T03:48:21.479Z,12.40
2018-09-08T03:49:21.478Z,12.43
2018-09-08T03:50:21.476Z,12.37
2018-09-08T03:51:21.469Z,12.39
2018-09-08T03:52:21.470Z,12.31
2018-09-08T03:53:21.465Z,12.37
2018-09-08T03:54:21.462Z,12.37
2018-09-08T03:55:21.461Z,12.32
2018-09-08T03:56:21.460Z,12.29
2018-09-08T03:57:21.456Z,12.31
2018-09-08T03:58:21.451Z,12.31
2018-09-08T03:59:21.448Z,12.32
2018-09-08T04:00:21.442Z,12.29
2018-09-08T04:01:21.448Z,12.25
2018-09-08T04:02:21.442Z,12.21
2018-09-08T04:03:21.436Z,12.20
2018-09-08T04:04:21.435Z,12.17
2018-09-08T04:05:21.433Z,12.10
2018-09-08T04:06:21.432Z,12.10
2018-09-08T04:07:21.426Z,12.12
2018-09-08T04:08:21.424Z,12.09
2018-09-08T04:09:21.422Z,12.07
2018-09-08T04:10:21.419Z,12.06
2018-09-08T04:11:21.508Z,12.04
2018-09-08T04:12:21.413Z,12.03
2018-09-08T04:13:21.409Z,11.95
2018-09-08T04:14:21.406Z,11.87
2018-09-08T04:15:21.411Z,11.94
2018-09-08T04:16:21.401Z,11.86
2018-09-08T04:17:21.398Z,11.81
2018-09-08T04:18:21.398Z,11.80
2018-09-08T04:19:21.393Z,11.78
2018-09-08T04:20:21.391Z,11.81
2018-09-08T04:21:21.388Z,11.78
2018-09-08T04:22:21.384Z,11.81
2018-09-08T04:23:21.380Z,11.70
2018-09-08T04:24:21.378Z,11.69
2018-09-08T04:25:21.378Z,11.86
2018-09-08T04:26:21.374Z,11.63
2018-09-08T04:27:21.369Z,11.72
2018-09-08T04:28:21.366Z,11.72
2018-09-08T04:29:21.370Z,11.70
2018-09-08T04:30:21.359Z,11.69
2018-09-08T04:31:21.361Z,11.65
2018-09-08T04:32:21.360Z,11.57
2018-09-08T04:33:21.352Z,11.63
2018-09-08T04:34:21.349Z,11.57
2018-09-08T04:35:21.347Z,11.57
2018-09-08T04:36:21.342Z,11.62
2018-09-08T04:37:21.341Z,11.65
2018-09-08T04:38:21.337Z,11.52
2018-09-08T04:39:21.332Z,11.51
2018-09-08T04:40:21.327Z,11.52
2018-09-08T04:41:21.328Z,11.54
2018-09-08T04:42:21.320Z,11.57
2018-09-08T04:43:21.320Z,11.54
2018-09-08T04:44:21.317Z,11.48
2018-09-08T04:45:21.314Z,11.48
2018-09-08T04:46:21.318Z,11.43
2018-09-08T04:47:21.307Z,11.41
2018-09-08T04:48:21.306Z,11.51
2018-09-08T04:49:21.397Z,11.51
2018-09-08T04:50:21.300Z,11.48
2018-09-08T04:51:21.295Z,11.51
2018-09-08T04:52:21.293Z,11.45
2018-09-08T04:53:21.288Z,11.50
2018-09-08T04:54:21.296Z,11.43
2018-09-08T04:55:21.283Z,11.47
2018-09-08T04:56:21.279Z,11.45
2018-09-08T04:57:21.277Z,11.54
2018-09-08T04:58:21.274Z,11.50
2018-09-08T04:59:21.276Z,11.66
2018-09-08T05:00:21.270Z,11.63
2018-09-08T05:01:21.263Z,11.65
2018-09-08T05:02:21.291Z,11.72
2018-09-08T05:03:21.258Z,11.75
2018-09-08T05:04:21.253Z,11.70
2018-09-08T05:05:21.252Z,11.72
2018-09-08T05:06:21.250Z,11.73
2018-09-08T05:07:21.246Z,11.78
2018-09-08T05:08:21.243Z,11.80
2018-09-08T05:09:21.241Z,11.77
2018-09-08T05:10:21.237Z,11.72
2018-09-08T05:11:21.231Z,11.78
2018-09-08T05:12:21.232Z,11.87
2018-09-08T05:13:21.233Z,11.83
2018-09-08T05:14:21.226Z,11.91
2018-09-08T05:15:21.221Z,11.90
2018-09-08T05:16:21.219Z,11.91
2018-09-08T05:17:21.215Z,11.99
2018-09-08T05:18:21.212Z,11.97
2018-09-08T05:19:21.208Z,12.07
2018-09-08T05:20:21.205Z,12.06
2018-09-08T05:21:21.204Z,12.12
2018-09-08T05:22:21.200Z,12.10
2018-09-08T05:23:21.195Z,12.06
2018-09-08T05:24:21.204Z,12.10
2018-09-08T05:25:21.190Z,12.21
2018-09-08T05:26:21.188Z,12.28
2018-09-08T05:27:21.191Z,12.32
2018-09-08T05:28:21.182Z,12.50
2018-09-08T05:29:21.178Z,12.53
2018-09-08T05:30:21.185Z,12.68
2018-09-08T05:31:21.173Z,12.82
2018-09-08T05:32:21.170Z,13.08
2018-09-08T05:33:21.168Z,13.81
2018-09-08T05:34:21.171Z,14.40
2018-09-08T05:35:21.165Z,15.10
2018-09-08T05:36:21.164Z,15.64
2018-09-08T05:37:21.152Z,15.83
2018-09-08T05:38:21.157Z,16.26
2018-09-08T05:39:21.151Z,16.71
2018-09-08T05:40:21.150Z,17.09
2018-09-08T05:41:21.145Z,17.36
2018-09-08T05:42:21.145Z,17.51
2018-09-08T05:43:21.141Z,17.68
2018-09-08T05:44:21.144Z,18.07
2018-09-08T05:45:21.139Z,18.04
2018-09-08T05:46:21.136Z,18.31
2018-09-08T05:47:21.134Z,18.83
2018-09-08T05:48:21.131Z,18.99
2018-09-08T05:49:21.128Z,19.22
2018-09-08T05:50:21.129Z,19.64
2018-09-08T05:51:21.131Z,19.91
2018-09-08T05:52:21.125Z,20.39
2018-09-08T05:53:21.124Z,20.69
2018-09-08T05:54:21.129Z,20.67
2018-09-08T05:55:21.126Z,20.81
2018-09-08T05:56:21.119Z,21.21
2018-09-08T05:57:21.122Z,21.62
2018-09-08T05:58:21.187Z,21.79
2018-09-08T05:59:21.121Z,22.06
2018-09-08T06:00:21.119Z,21.82
2018-09-08T06:01:21.125Z,22.07
2018-09-08T06:02:21.125Z,22.57
2018-09-08T06:03:21.119Z,22.35
2018-09-08T06:04:21.119Z,22.54
2018-09-08T06:05:21.123Z,22.70
2018-09-08T06:06:21.127Z,23.15
2018-09-08T06:07:21.123Z,23.28
2018-09-08T06:08:21.119Z,23.00
2018-09-08T06:09:21.127Z,22.38
2018-09-08T06:10:21.179Z,22.63
2018-09-08T06:11:21.120Z,23.23
2018-09-08T06:12:21.128Z,22.94
2018-09-08T06:13:21.124Z,23.48
2018-09-08T06:14:21.126Z,23.86
2018-09-08T06:15:21.130Z,23.63
2018-09-08T06:16:21.127Z,24.08
2018-09-08T06:17:21.151Z,24.14
2018-09-08T06:18:21.193Z,24.47
2018-09-08T06:19:21.132Z,24.55
2018-09-08T06:20:21.135Z,24.43
2018-09-08T06:21:21.133Z,24.42
2018-09-08T06:22:21.138Z,24.76
2018-09-08T06:23:21.134Z,25.03
2018-09-08T06:24:21.172Z,25.35
2018-09-08T06:25:21.193Z,25.44
2018-09-08T06:26:21.144Z,25.44
2018-09-08T06:27:21.145Z,25.60
2018-09-08T06:28:21.157Z,25.96
2018-09-08T06:29:21.149Z,25.53
2018-09-08T06:30:21.149Z,25.29
2018-09-08T06:31:21.152Z,24.03
2018-09-08T06:32:21.158Z,24.50
2018-09-08T06:33:21.171Z,25.25
2018-09-08T06:34:21.159Z,25.18
2018-09-08T06:35:21.251Z,25.63
2018-09-08T06:36:21.180Z,26.10
2018-09-08T06:37:21.173Z,26.18
2018-09-08T06:38:21.170Z,25.54
2018-09-08T06:39:21.168Z,25.28
2018-09-08T06:40:21.170Z,25.69
2018-09-08T06:41:21.175Z,25.95
2018-09-08T06:42:21.180Z,26.25
2018-09-08T06:43:21.178Z,26.26
2018-09-08T06:44:21.185Z,26.23
2018-09-08T06:45:21.184Z,26.47
2018-09-08T06:46:21.187Z,26.78
2018-09-08T06:47:21.188Z,26.59
2018-09-08T06:48:21.195Z,27.07
2018-09-08T06:49:21.199Z,26.38
2018-09-08T06:50:21.197Z,26.51
2018-09-08T06:51:21.201Z,26.65
2018-09-08T06:52:21.261Z,26.07
2018-09-08T06:53:21.207Z,26.16
2018-09-08T06:54:21.211Z,25.84
2018-09-08T06:55:21.209Z,25.95
2018-09-08T06:56:21.211Z,25.93
2018-09-08T06:57:21.218Z,26.15
2018-09-08T06:58:21.220Z,26.89
2018-09-08T06:59:21.225Z,27.10
2018-09-08T07:00:21.228Z,26.89
2018-09-08T07:01:21.232Z,26.80
2018-09-08T07:02:21.236Z,27.32
2018-09-08T07:03:21.267Z,27.00
2018-09-08T07:04:21.246Z,27.58
2018-09-08T07:05:21.246Z,28.00
2018-09-08T07:06:21.248Z,27.68
2018-09-08T07:07:21.250Z,26.62
2018-09-08T07:08:21.255Z,26.74
2018-09-08T07:09:21.261Z,26.52
2018-09-08T07:10:21.266Z,26.00
2018-09-08T07:11:21.269Z,26.45
2018-09-08T07:12:21.271Z,27.05
2018-09-08T07:13:21.275Z,27.48
2018-09-08T07:14:21.284Z,27.22
2018-09-08T07:15:21.282Z,27.65
2018-09-08T07:16:21.284Z,26.59
2018-09-08T07:17:21.290Z,26.68
2018-09-08T07:18:21.296Z,27.12
2018-09-08T07:19:21.298Z,27.22
2018-09-08T07:20:21.304Z,26.63
2018-09-08T07:21:21.306Z,27.14
2018-09-08T07:22:21.311Z,27.42
2018-09-08T07:23:21.315Z,27.26
2018-09-08T07:24:21.319Z,26.70
2018-09-08T07:25:21.324Z,25.62
2018-09-08T07:26:21.327Z,24.99
2018-09-08T07:27:21.326Z,23.62
2018-09-08T07:28:21.331Z,22.98
2018-09-08T07:29:21.339Z,22.26
2018-09-08T07:30:21.343Z,21.57
2018-09-08T07:31:21.346Z,21.25
2018-09-08T07:32:21.358Z,20.66
2018-09-08T07:33:21.353Z,20.69
2018-09-08T07:34:21.357Z,20.39
2018-09-08T07:35:21.359Z,20.07
2018-09-08T07:36:21.368Z,19.96
2018-09-08T07:37:21.434Z,19.69
2018-09-08T07:38:21.370Z,19.47
2018-09-08T07:39:21.373Z,19.45
2018-09-08T07:40:21.379Z,19.44
2018-09-08T07:41:21.379Z,19.49
2018-09-08T07:42:21.383Z,19.41
2018-09-08T07:43:21.384Z,19.40
2018-09-08T07:44:21.383Z,19.33
2018-09-08T07:45:21.388Z,19.40
2018-09-08T07:46:21.388Z,19.24
2018-09-08T07:47:21.389Z,19.21
2018-09-08T07:48:21.397Z,19.14
2018-09-08T07:49:21.393Z,18.99
2018-09-08T07:50:21.397Z,19.02
2018-09-08T07:51:21.397Z,19.00
2018-09-08T07:52:21.399Z,19.08
2018-09-08T07:53:21.465Z,18.99
2018-09-08T07:54:21.404Z,19.02
2018-09-08T07:55:21.415Z,18.96
2018-09-08T07:56:21.404Z,18.99
2018-09-08T07:57:21.405Z,19.00
2018-09-08T07:58:21.411Z,18.88
2018-09-08T07:59:21.476Z,18.84
2018-09-08T08:00:21.413Z,18.99
2018-09-08T08:01:21.412Z,18.98
2018-09-08T08:02:21.409Z,19.08
2018-09-08T08:03:21.415Z,19.07
2018-09-08T08:04:21.414Z,19.04
2018-09-08T08:05:21.415Z,19.11
2018-09-08T08:06:21.419Z,19.11
2018-09-08T08:07:21.416Z,19.19
2018-09-08T08:08:21.422Z,19.24
2018-09-08T08:09:21.420Z,19.33
2018-09-08T08:10:21.420Z,19.33
2018-09-08T08:11:21.423Z,19.30
2018-09-08T08:12:22.299Z,19.19
2018-09-08T08:13:21.422Z,19.27
2018-09-08T08:14:21.458Z,19.22
2018-09-08T08:15:21.418Z,19.31
2018-09-08T08:16:21.422Z,19.22
2018-09-08T08:17:21.427Z,19.33
2018-09-08T08:18:21.425Z,19.27
2018-09-08T08:19:21.429Z,19.29
2018-09-08T08:20:21.425Z,19.27
2018-09-08T08:21:21.429Z,19.22
2018-09-08T08:22:21.437Z,19.15
2018-09-08T08:23:21.548Z,19.16
2018-09-08T08:24:21.433Z,19.12
2018-09-08T08:25:21.433Z,19.18
2018-09-08T08:26:21.437Z,19.14
2018-09-08T08:27:21.439Z,19.04
2018-09-08T08:28:21.432Z,19.14
2018-09-08T08:29:21.434Z,19.24
2018-09-08T08:30:21.434Z,19.30
2018-09-08T08:31:21.436Z,19.37
2018-09-08T08:32:21.438Z,19.40
2018-09-08T08:33:21.436Z,19.29
2018-09-08T08:34:21.440Z,19.24
2018-09-08T08:35:21.440Z,19.14
2018-09-08T08:36:21.441Z,19.19
2018-09-08T08:37:21.485Z,19.14
2018-09-08T08:38:21.443Z,19.11
2018-09-08T08:39:21.440Z,19.15
2018-09-08T08:40:21.442Z,19.21
2018-09-08T08:41:21.439Z,19.24
2018-09-08T08:42:21.442Z,19.11
2018-09-08T08:43:21.505Z,19.21
2018-09-08T08:44:21.443Z,19.24
2018-09-08T08:45:21.446Z,19.29
2018-09-08T08:46:21.441Z,19.27
2018-09-08T08:47:21.444Z,19.21
2018-09-08T08:48:21.446Z,19.29
2018-09-08T08:49:21.447Z,19.19
2018-09-08T08:50:21.449Z,19.33
2018-09-08T08:51:21.449Z,19.36
2018-09-08T08:52:21.463Z,19.37
2018-09-08T08:53:21.448Z,19.49
2018-09-08T08:54:21.457Z,19.55
2018-09-08T08:55:21.451Z,19.49
2018-09-08T08:56:22.237Z,19.64
2018-09-08T08:57:21.449Z,19.64
2018-09-08T08:58:21.455Z,19.58
2018-09-08T08:59:21.450Z,19.49
2018-09-08T09:00:21.452Z,19.54
2018-09-08T09:01:21.452Z,19.47
2018-09-08T09:02:21.453Z,19.59
2018-09-08T09:03:21.456Z,19.66
2018-09-08T09:04:21.452Z,19.52
2018-09-08T09:05:21.454Z,19.69
2018-09-08T09:06:21.455Z,19.56
2018-09-08T09:07:21.452Z,19.58
2018-09-08T09:08:21.812Z,19.63
2018-09-08T09:09:21.457Z,19.55
2018-09-08T09:10:21.460Z,19.45
2018-09-08T09:11:21.456Z,19.64
2018-09-08T09:12:21.472Z,19.64
2018-09-08T09:13:21.510Z,19.73
2018-09-08T09:14:21.462Z,19.69
2018-09-08T09:15:21.846Z,19.86
2018-09-08T09:16:21.461Z,19.85
2018-09-08T09:17:21.461Z,19.85
2018-09-08T09:18:21.730Z,19.94
2018-09-08T09:19:21.461Z,19.86
2018-09-08T09:20:21.462Z,19.96
2018-09-08T09:21:21.465Z,20.06
2018-09-08T09:22:21.466Z,20.07
2018-09-08T09:23:21.515Z,20.10
2018-09-08T09:24:21.967Z,20.10
2018-09-08T09:25:21.469Z,20.09
2018-09-08T09:26:21.468Z,20.21
2018-09-08T09:27:21.468Z,20.19
2018-09-08T09:28:21.469Z,20.22
2018-09-08T09:29:21.468Z,20.13
2018-09-08T09:30:21.470Z,20.10
2018-09-08T09:31:21.470Z,20.25
2018-09-08T09:32:21.475Z,20.21
2018-09-08T09:33:21.474Z,20.10
2018-09-08T09:34:21.476Z,20.09
2018-09-08T09:35:21.476Z,20.06
2018-09-08T09:36:21.475Z,20.00
2018-09-08T09:37:21.538Z,20.02
2018-09-08T09:38:21.477Z,20.03
2018-09-08T09:39:21.477Z,20.06
2018-09-08T09:40:21.481Z,20.13
2018-09-08T09:41:21.475Z,20.25
2018-09-08T09:42:21.485Z,20.32
2018-09-08T09:43:21.481Z,20.50
2018-09-08T09:44:21.529Z,20.44
2018-09-08T09:45:21.486Z,20.52
2018-09-08T09:46:21.485Z,20.60
2018-09-08T09:47:21.484Z,20.59
2018-09-08T09:48:21.492Z,20.65
2018-09-08T09:49:21.486Z,20.62
2018-09-08T09:50:21.487Z,20.72
2018-09-08T09:51:21.490Z,20.72
2018-09-08T09:52:21.489Z,20.78
2018-09-08T09:53:21.489Z,20.82
2018-09-08T09:54:21.493Z,20.92
2018-09-08T09:55:21.496Z,20.81
2018-09-08T09:56:21.490Z,20.75
2018-09-08T09:57:21.497Z,20.74
2018-09-08T09:58:21.507Z,20.77
2018-09-08T09:59:21.497Z,20.77
2018-09-08T10:00:21.505Z,20.77
2018-09-08T10:01:21.501Z,20.90
2018-09-08T10:02:21.501Z,20.82
2018-09-08T10:03:21.499Z,20.72
2018-09-08T10:04:21.503Z,20.72
2018-09-08T10:05:21.508Z,20.66
2018-09-08T10:06:21.502Z,20.67
2018-09-08T10:07:21.499Z,20.62
2018-09-08T10:08:21.502Z,20.47
2018-09-08T10:09:21.508Z,20.50
2018-09-08T10:10:21.514Z,20.50
2018-09-08T10:11:21.504Z,20.44
2018-09-08T10:12:21.508Z,20.65
2018-09-08T10:13:21.527Z,20.78
2018-09-08T10:14:21.515Z,20.74
2018-09-08T10:15:21.512Z,20.70
2018-09-08T10:16:21.512Z,20.69
2018-09-08T10:17:21.511Z,20.48
2018-09-08T10:18:21.517Z,20.48
2018-09-08T10:19:21.517Z,20.36
2018-09-08T10:20:21.517Z,20.22
2018-09-08T10:21:21.517Z,20.25
2018-09-08T10:22:21.519Z,20.21
2018-09-08T10:23:21.594Z,20.16
2018-09-08T10:24:21.522Z,20.21
2018-09-08T10:25:21.521Z,20.25
2018-09-08T10:26:21.581Z,20.25
2018-09-08T10:27:21.525Z,20.55
2018-09-08T10:28:21.524Z,20.40
2018-09-08T10:29:21.529Z,20.48
2018-09-08T10:30:21.535Z,20.56
2018-09-08T10:31:21.525Z,20.69
2018-09-08T10:32:21.528Z,20.63
2018-09-08T10:33:21.528Z,20.67
2018-09-08T10:34:21.525Z,20.60
2018-09-08T10:35:21.525Z,20.39
2018-09-08T10:36:21.537Z,20.48
2018-09-08T10:37:21.533Z,20.47
2018-09-08T10:38:21.534Z,20.48
2018-09-08T10:39:21.533Z,20.56
2018-09-08T10:40:21.540Z,20.67
2018-09-08T10:41:22.272Z,20.77
2018-09-08T10:42:21.535Z,20.87
2018-09-08T10:43:21.539Z,20.99
2018-09-08T10:44:21.538Z,21.03
2018-09-08T10:45:21.540Z,21.09
2018-09-08T10:46:21.542Z,21.06
2018-09-08T10:47:21.540Z,21.12
2018-09-08T10:48:21.546Z,21.21
2018-09-08T10:49:21.544Z,21.12
2018-09-08T10:50:21.545Z,21.11
2018-09-08T10:51:21.546Z,20.96
2018-09-08T10:52:21.546Z,20.87
2018-09-08T10:53:22.349Z,20.97
2018-09-08T10:54:21.549Z,20.92
2018-09-08T10:55:21.549Z,20.96
2018-09-08T10:56:21.550Z,21.15
2018-09-08T10:57:21.550Z,21.30
2018-09-08T10:58:21.555Z,21.32
2018-09-08T10:59:21.552Z,21.36
2018-09-08T11:00:21.554Z,21.35
2018-09-08T11:01:21.560Z,21.45
2018-09-08T11:02:21.773Z,21.40
2018-09-08T11:03:21.557Z,21.33
2018-09-08T11:04:22.354Z,21.52
2018-09-08T11:05:21.559Z,21.43
2018-09-08T11:06:21.563Z,21.46
2018-09-08T11:07:21.561Z,21.33
2018-09-08T11:08:21.563Z,21.33
2018-09-08T11:09:21.564Z,21.61
2018-09-08T11:10:21.567Z,21.64
2018-09-08T11:11:21.567Z,21.70
2018-09-08T11:12:21.568Z,21.79
2018-09-08T11:13:21.569Z,21.85
2018-09-08T11:14:21.572Z,22.02
2018-09-08T11:15:21.571Z,21.89
2018-09-08T11:16:21.574Z,22.10
2018-09-08T11:17:21.573Z,22.04
2018-09-08T11:18:21.578Z,22.15
2018-09-08T11:19:21.579Z,22.20
2018-09-08T11:20:21.581Z,22.20
2018-09-08T11:21:21.581Z,22.26
2018-09-08T11:22:21.580Z,22.17
2018-09-08T11:23:21.584Z,22.20
2018-09-08T11:24:21.605Z,22.15
2018-09-08T11:25:21.584Z,22.20
2018-09-08T11:26:21.588Z,22.28
2018-09-08T11:27:21.592Z,22.11
2018-09-08T11:28:21.589Z,22.15
2018-09-08T11:29:21.591Z,22.18
2018-09-08T11:30:21.590Z,22.14
2018-09-08T11:31:21.593Z,22.06
2018-09-08T11:32:21.595Z,22.00
2018-09-08T11:33:21.596Z,21.95
2018-09-08T11:34:21.601Z,21.93
2018-09-08T11:35:21.599Z,21.73
2018-09-08T11:36:21.601Z,21.82
2018-09-08T11:37:21.608Z,21.88
2018-09-08T11:38:21.693Z,22.04
2018-09-08T11:39:21.615Z,22.06
2018-09-08T11:40:21.608Z,22.11
2018-09-08T11:41:21.610Z,21.95
2018-09-08T11:42:21.610Z,22.04
2018-09-08T11:43:22.294Z,22.04
2018-09-08T11:44:21.612Z,22.06
2018-09-08T11:45:21.614Z,21.88
2018-09-08T11:46:21.616Z,21.98
2018-09-08T11:47:21.617Z,22.07
2018-09-08T11:48:21.619Z,22.10
2018-09-08T11:49:21.629Z,22.07
2018-09-08T11:50:22.368Z,22.13
2018-09-08T11:51:21.624Z,22.15
2018-09-08T11:52:21.626Z,22.13
2018-09-08T11:53:21.627Z,22.17
2018-09-08T11:54:21.628Z,22.30
2018-09-08T11:55:21.631Z,22.50
2018-09-08T11:56:21.632Z,22.59
2018-09-08T11:57:22.297Z,22.65
2018-09-08T11:58:21.635Z,22.57
2018-09-08T11:59:21.636Z,22.44
2018-09-08T12:00:21.636Z,22.50
2018-09-08T12:01:21.641Z,22.57
2018-09-08T12:02:21.642Z,22.66
2018-09-08T12:03:21.644Z,22.59
2018-09-08T12:04:21.643Z,22.51
2018-09-08T12:05:21.646Z,22.53
2018-09-08T12:06:21.653Z,22.51
2018-09-08T12:07:21.656Z,22.48
2018-09-08T12:08:21.659Z,22.47
2018-09-08T12:09:21.655Z,22.36
2018-09-08T12:10:21.656Z,22.35
2018-09-08T12:11:21.665Z,22.43
2018-09-08T12:12:21.658Z,22.59
2018-09-08T12:13:21.664Z,22.59
2018-09-08T12:14:21.663Z,22.63
2018-09-08T12:15:21.667Z,22.69
2018-09-08T12:16:21.666Z,22.81
2018-09-08T12:17:21.675Z,22.68
2018-09-08T12:18:21.672Z,22.70
2018-09-08T12:19:21.676Z,22.72
2018-09-08T12:20:21.676Z,22.59
2018-09-08T12:21:21.677Z,22.69
2018-09-08T12:22:21.680Z,22.70
2018-09-08T12:23:21.679Z,22.75
2018-09-08T12:24:21.681Z,22.87
2018-09-08T12:25:21.686Z,22.70
2018-09-08T12:26:21.694Z,22.70
2018-09-08T12:27:21.688Z,22.66
2018-09-08T12:28:21.691Z,22.65
2018-09-08T12:29:21.692Z,22.65
2018-09-08T12:30:21.703Z,22.59
2018-09-08T12:31:21.697Z,22.78
2018-09-08T12:32:21.756Z,22.88
2018-09-08T12:33:21.702Z,22.88
2018-09-08T12:34:21.704Z,22.94
2018-09-08T12:35:21.705Z,23.06
2018-09-08T12:36:21.705Z,23.08
2018-09-08T12:37:21.712Z,23.13
2018-09-08T12:38:21.712Z,23.25
2018-09-08T12:39:21.712Z,23.23
2018-09-08T12:40:21.715Z,23.17
2018-09-08T12:41:21.717Z,23.17
2018-09-08T12:42:21.721Z,23.09
2018-09-08T12:43:21.733Z,23.02
2018-09-08T12:44:21.725Z,22.87
2018-09-08T12:45:21.729Z,22.68
2018-09-08T12:46:21.725Z,22.55
2018-09-08T12:47:21.728Z,22.41
2018-09-08T12:48:21.732Z,22.18
2018-09-08T12:49:21.733Z,22.25
2018-09-08T12:50:21.741Z,22.25
2018-09-08T12:51:21.738Z,22.32
2018-09-08T12:52:21.755Z,22.50